»·PEaware :: N47332B CZST-CYVR

N47332B :: CZST-CYVR

FLIGHT INFORMATION

Flight Status: Arrived
Operator: Privately registered:
United States
More flights under this callsign
Pilot: Kenny J. (11300)
Aircraft: CESSNA 172 SKYHAWK
(C172)
More flights by this aircraft type
Origin: CZST Stewart
Canada
Destination: CYVR Vancouver Intl
Canada
More flights between these airports :: More routes between these airports
Route: DCT XT B25 YJQ V317 YZT V440 CORMO V317 FENEL V440 ATUNA V317 COHOE V440 QQ V317 TREEL CUL20 VARSY
File this flight plan on PilotEdge
Remarks:
Altitude:
(Current/Filed)
9,500ft
Speed:
(Current/Filed)
150kts
Departed: 29-Jul-16 09:37 AM
Arrived: 29-Jul-16 02:50 PM
Distance/Time
Traveled:
474nm/5:13
Distance/Time
To Go:
Arrived

Flight Plot

Page will automatically refresh every two minutes.


Map Options




Map Legend


Flown Route
Filed Route
Departure Airport
Arrival Airport
Navaid (VOR, NDB)
Fix

Horizontal Profiles

Position Reports

Time Latitude Longitude Heading Altitude Ground
Speed
29-Jul-16 09:22 55.935980 -129.982703 209 25ft 0kts
29-Jul-16 09:23 55.935980 -129.982703 209 25ft 0kts
29-Jul-16 09:24 55.935980 -129.982703 209 25ft 0kts
29-Jul-16 09:25 55.935980 -129.982703 209 25ft 0kts
29-Jul-16 09:26 55.935980 -129.982703 209 25ft 0kts
29-Jul-16 09:27 55.935980 -129.982703 209 25ft 0kts
29-Jul-16 09:28 55.935980 -129.982703 209 25ft 0kts
29-Jul-16 09:29 55.935679 -129.982882 158 25ft 8kts
29-Jul-16 09:30 55.935060 -129.982534 205 25ft 40kts
29-Jul-16 09:31 55.920779 -129.991668 201 582ft 79kts
29-Jul-16 09:32 55.901239 -130.006248 209 1390ft 88kts
29-Jul-16 09:33 55.879727 -130.023612 203 2038ft 101kts
29-Jul-16 09:34 55.857704 -130.043672 209 2763ft 94kts
29-Jul-16 09:35 55.837881 -130.069504 214 3374ft 95kts
29-Jul-16 09:36 55.814836 -130.077519 163 3942ft 100kts
29-Jul-16 09:37 55.807347 -130.045294 67 4687ft 93kts
29-Jul-16 09:38 55.816716 -130.011248 50 5129ft 106kts
29-Jul-16 09:39 55.830406 -129.976962 63 5691ft 103kts
29-Jul-16 09:40 55.818669 -129.945433 159 6288ft 95kts
29-Jul-16 09:41 55.799482 -129.929141 164 6850ft 93kts
29-Jul-16 09:42 55.777943 -129.918717 171 7461ft 91kts
29-Jul-16 09:43 55.762251 -129.890281 125 8077ft 97kts
29-Jul-16 09:44 55.749486 -129.854430 125 8667ft 99kts
29-Jul-16 09:46 55.735434 -129.818008 133 9108ft 108kts
29-Jul-16 09:47 55.715762 -129.787762 149 9487ft 115kts
29-Jul-16 09:48 55.689807 -129.758933 154 9502ft 135kts
29-Jul-16 09:49 55.661098 -129.730856 155 9499ft 138kts
29-Jul-16 09:50 55.631394 -129.703019 156 9497ft 135kts
29-Jul-16 09:51 55.604090 -129.677761 157 9497ft 119kts
29-Jul-16 09:52 55.577900 -129.653702 157 9499ft 121kts
29-Jul-16 09:53 55.551878 -129.629836 157 9500ft 122kts
29-Jul-16 09:54 55.525661 -129.605828 157 9499ft 127kts
29-Jul-16 09:55 55.500357 -129.582662 157 9498ft 118kts
29-Jul-16 09:56 55.475279 -129.559918 153 9504ft 131kts
29-Jul-16 09:57 55.448155 -129.535075 153 9499ft 133kts
29-Jul-16 09:58 55.421225 -129.510535 153 9499ft 133kts
29-Jul-16 09:59 55.394253 -129.486010 153 9499ft 133kts
29-Jul-16 10:00 55.368275 -129.462430 153 9500ft 133kts
29-Jul-16 10:00 55.346986 -129.443133 153 9500ft 133kts
29-Jul-16 10:01 55.322632 -129.421089 153 9500ft 133kts
29-Jul-16 10:02 55.297578 -129.398442 153 9500ft 133kts
29-Jul-16 10:03 55.273089 -129.376338 153 9500ft 133kts
29-Jul-16 10:04 55.249056 -129.354670 153 9500ft 133kts
29-Jul-16 10:05 55.228863 -129.335939 158 9496ft 130kts
29-Jul-16 10:06 55.206574 -129.315760 159 9493ft 128kts
29-Jul-16 10:07 55.185283 -129.296597 159 9490ft 127kts
29-Jul-16 10:08 55.164713 -129.278118 159 9486ft 127kts
29-Jul-16 10:09 55.144633 -129.260125 159 9482ft 127kts
29-Jul-16 10:10 55.125083 -129.242630 160 9479ft 127kts
29-Jul-16 10:11 55.104890 -129.224580 160 9477ft 128kts
29-Jul-16 10:12 55.085194 -129.206999 160 9474ft 129kts
29-Jul-16 10:13 55.066034 -129.189912 160 9473ft 129kts
29-Jul-16 10:14 55.046908 -129.172906 160 9474ft 129kts
29-Jul-16 10:15 55.028325 -129.156344 161 9472ft 130kts
29-Jul-16 10:16 55.009677 -129.139779 160 9470ft 130kts
29-Jul-16 10:17 54.990415 -129.122671 161 9471ft 129kts
29-Jul-16 10:18 54.971066 -129.105471 160 9471ft 129kts
29-Jul-16 10:19 54.951799 -129.088439 160 9471ft 130kts
29-Jul-16 10:20 54.932635 -129.071428 160 9472ft 130kts
29-Jul-16 10:21 54.913077 -129.054167 160 9470ft 130kts
29-Jul-16 10:22 54.895234 -129.038406 160 9470ft 130kts
29-Jul-16 10:23 54.877672 -129.022892 160 9470ft 129kts
29-Jul-16 10:24 54.860572 -129.007814 160 9472ft 129kts
29-Jul-16 10:25 54.847103 -128.995927 160 9471ft 129kts
29-Jul-16 10:26 54.830644 -128.981475 160 9471ft 129kts
29-Jul-16 10:27 54.814537 -128.967310 161 9473ft 129kts
29-Jul-16 10:28 54.799162 -128.953798 160 9470ft 129kts
29-Jul-16 10:29 54.783949 -128.940456 161 9472ft 129kts
29-Jul-16 10:30 54.768492 -128.926896 161 9474ft 128kts
29-Jul-16 10:31 54.752076 -128.912485 161 9473ft 128kts
29-Jul-16 10:32 54.735826 -128.898262 160 9472ft 128kts
29-Jul-16 10:33 54.719290 -128.883793 161 9472ft 128kts
29-Jul-16 10:34 54.702780 -128.869364 161 9470ft 128kts
29-Jul-16 10:35 54.686327 -128.855027 161 9470ft 128kts
29-Jul-16 10:36 54.669617 -128.840453 161 9472ft 128kts
29-Jul-16 10:37 54.653990 -128.826802 161 9473ft 128kts
29-Jul-16 10:38 54.638105 -128.813011 161 9473ft 129kts
29-Jul-16 10:39 54.622053 -128.799047 161 9473ft 129kts
29-Jul-16 10:40 54.606149 -128.785198 161 9472ft 129kts
29-Jul-16 10:41 54.590309 -128.771436 161 9475ft 129kts
29-Jul-16 10:42 54.574975 -128.758133 161 9472ft 129kts
29-Jul-16 10:43 54.559360 -128.744606 160 9472ft 129kts
29-Jul-16 10:44 54.543697 -128.731027 161 9473ft 129kts
29-Jul-16 10:45 54.527521 -128.717036 161 9472ft 129kts
29-Jul-16 10:46 54.511120 -128.702851 161 9472ft 129kts
29-Jul-16 10:47 54.494607 -128.688590 161 9471ft 129kts
29-Jul-16 10:49 54.478207 -128.674439 161 9472ft 129kts
29-Jul-16 10:50 54.461844 -128.660322 161 9474ft 129kts
29-Jul-16 10:51 54.445283 -128.646034 161 9472ft 129kts
29-Jul-16 10:52 54.428283 -128.631423 161 9472ft 129kts
29-Jul-16 10:53 54.412473 -128.617809 160 9472ft 130kts
29-Jul-16 10:54 54.396427 -128.604034 160 9472ft 130kts
29-Jul-16 10:55 54.379755 -128.589731 161 9471ft 129kts
29-Jul-16 10:56 54.360806 -128.589857 196 9497ft 115kts
29-Jul-16 10:57 54.343635 -128.593755 197 9500ft 116kts
29-Jul-16 10:58 54.325852 -128.598160 197 9499ft 116kts
29-Jul-16 10:59 54.307417 -128.602924 197 9502ft 116kts
29-Jul-16 11:00 54.289409 -128.607659 197 9509ft 116kts
29-Jul-16 11:01 54.271548 -128.612407 197 9508ft 117kts
29-Jul-16 11:01 54.256134 -128.616520 197 9510ft 117kts
29-Jul-16 11:03 54.233981 -128.622437 197 9508ft 117kts
29-Jul-16 11:03 54.218568 -128.626555 197 9510ft 117kts
29-Jul-16 11:04 54.200061 -128.631505 197 9510ft 117kts
29-Jul-16 11:05 54.181210 -128.636527 197 9509ft 117kts
29-Jul-16 11:06 54.161951 -128.641677 197 9508ft 117kts
29-Jul-16 11:07 54.142036 -128.646990 198 9511ft 117kts
29-Jul-16 11:08 54.122122 -128.652280 198 9510ft 117kts
29-Jul-16 11:09 54.101884 -128.657671 198 9510ft 117kts
29-Jul-16 11:10 54.081569 -128.663061 197 9510ft 117kts
29-Jul-16 11:11 54.061700 -128.668344 197 9509ft 117kts
29-Jul-16 11:12 54.041068 -128.665565 179 9511ft 123kts
29-Jul-16 11:13 54.019245 -128.659163 178 9510ft 124kts
29-Jul-16 11:14 53.996009 -128.652115 178 9508ft 124kts
29-Jul-16 11:15 53.971862 -128.644701 178 9508ft 124kts
29-Jul-16 11:16 53.939013 -128.634553 178 9511ft 123kts
29-Jul-16 11:17 53.907535 -128.624837 178 9509ft 124kts
29-Jul-16 11:18 53.887270 -128.618588 178 9508ft 124kts
29-Jul-16 11:19 53.864097 -128.611443 178 9511ft 123kts
29-Jul-16 11:20 53.844300 -128.605335 178 9509ft 123kts
29-Jul-16 11:21 53.820295 -128.597952 178 9508ft 123kts
29-Jul-16 11:22 53.796660 -128.590684 178 9510ft 122kts
29-Jul-16 11:23 53.772214 -128.583196 178 9511ft 122kts
29-Jul-16 11:24 53.749978 -128.576365 178 9510ft 122kts
29-Jul-16 11:25 53.728065 -128.569653 178 9509ft 122kts
29-Jul-16 11:26 53.706243 -128.562981 178 9511ft 122kts
29-Jul-16 11:27 53.683381 -128.555998 178 9508ft 123kts
29-Jul-16 11:28 53.660846 -128.549106 178 9509ft 123kts
29-Jul-16 11:29 53.638246 -128.542217 178 9508ft 123kts
29-Jul-16 11:30 53.615091 -128.535168 178 9509ft 123kts
29-Jul-16 11:31 53.592695 -128.528340 178 9511ft 122kts
29-Jul-16 11:32 53.569778 -128.521378 178 9508ft 123kts
29-Jul-16 11:33 53.545734 -128.514077 178 9511ft 122kts
29-Jul-16 11:34 53.522047 -128.506891 178 9511ft 122kts
29-Jul-16 11:35 53.497819 -128.499562 178 9511ft 123kts
29-Jul-16 11:36 53.473013 -128.492045 178 9511ft 123kts
29-Jul-16 11:37 53.448634 -128.484670 178 9509ft 122kts
29-Jul-16 11:38 53.423951 -128.477223 178 9511ft 122kts
29-Jul-16 11:39 53.398839 -128.469656 178 9519ft 123kts
29-Jul-16 11:40 53.372627 -128.461763 178 9523ft 123kts
29-Jul-16 11:41 53.344730 -128.453374 178 9535ft 124kts
29-Jul-16 11:42 53.314403 -128.444262 178 9543ft 125kts
29-Jul-16 11:43 53.285344 -128.435551 177 9553ft 125kts
29-Jul-16 11:44 53.253613 -128.426042 177 9559ft 127kts
29-Jul-16 11:45 53.221249 -128.416362 177 9562ft 127kts
29-Jul-16 11:46 53.188171 -128.406483 177 9564ft 127kts
29-Jul-16 11:47 53.154287 -128.396378 177 9564ft 128kts
29-Jul-16 11:48 53.124283 -128.387447 177 9565ft 128kts
29-Jul-16 11:49 53.092269 -128.377930 177 9565ft 128kts
29-Jul-16 11:51 53.061435 -128.368778 177 9565ft 128kts
29-Jul-16 11:52 53.029357 -128.359271 177 9565ft 128kts
29-Jul-16 11:53 52.996403 -128.349517 178 9564ft 128kts
29-Jul-16 11:54 52.964734 -128.339730 178 9562ft 127kts
29-Jul-16 11:55 52.931906 -128.329905 178 9562ft 127kts
29-Jul-16 11:56 52.900055 -128.320487 178 9562ft 127kts
29-Jul-16 11:57 52.872144 -128.312266 178 9560ft 126kts
29-Jul-16 11:58 52.837495 -128.302086 178 9561ft 126kts
29-Jul-16 11:59 52.803042 -128.291982 178 9561ft 126kts
29-Jul-16 12:00 52.768543 -128.281883 178 9561ft 126kts
29-Jul-16 12:01 52.733968 -128.271777 178 9561ft 126kts
29-Jul-16 12:02 52.699438 -128.261701 178 9561ft 126kts
29-Jul-16 12:03 52.665065 -128.251686 178 9561ft 126kts
29-Jul-16 12:03 52.636254 -128.243305 178 9561ft 126kts
29-Jul-16 12:04 52.601542 -128.233222 178 9557ft 127kts
29-Jul-16 12:05 52.566811 -128.223149 178 9553ft 127kts
29-Jul-16 12:06 52.532200 -128.213127 178 9548ft 127kts
29-Jul-16 12:07 52.497259 -128.203026 178 9543ft 127kts
29-Jul-16 12:08 52.462176 -128.192909 178 9503ft 129kts
29-Jul-16 12:09 52.427290 -128.182845 178 9500ft 128kts
29-Jul-16 12:10 52.393216 -128.173042 178 9499ft 127kts
29-Jul-16 12:11 52.358629 -128.163108 178 9498ft 127kts
29-Jul-16 12:12 52.323789 -128.153115 178 9498ft 127kts
29-Jul-16 12:13 52.289167 -128.143201 178 9498ft 127kts
29-Jul-16 12:14 52.254568 -128.133309 178 9498ft 127kts
29-Jul-16 12:15 52.219964 -128.123432 178 9499ft 127kts
29-Jul-16 12:16 52.185537 -128.113256 170 9498ft 129kts
29-Jul-16 12:17 52.151629 -128.096106 170 9499ft 129kts
29-Jul-16 12:18 52.117998 -128.078874 170 9499ft 128kts
29-Jul-16 12:19 52.084119 -128.061490 170 9499ft 128kts
29-Jul-16 12:20 52.050306 -128.044154 170 9499ft 128kts
29-Jul-16 12:21 52.016365 -128.026777 170 9499ft 128kts
29-Jul-16 12:22 51.982601 -128.009519 170 9499ft 127kts
29-Jul-16 12:23 51.948762 -127.992253 170 9499ft 128kts
29-Jul-16 12:24 51.914831 -127.974965 170 9499ft 128kts
29-Jul-16 12:25 51.884000 -127.959270 170 9498ft 129kts
29-Jul-16 12:26 51.850445 -127.942233 170 9498ft 130kts
29-Jul-16 12:27 51.817131 -127.925331 170 9498ft 131kts
29-Jul-16 12:28 51.783242 -127.908162 170 9498ft 131kts
29-Jul-16 12:29 51.749339 -127.891016 170 9498ft 131kts
29-Jul-16 12:30 51.715776 -127.874070 170 9498ft 131kts
29-Jul-16 12:31 51.681367 -127.856724 170 9499ft 131kts
29-Jul-16 12:32 51.647354 -127.839606 170 9499ft 131kts
29-Jul-16 12:33 51.615280 -127.823488 170 9499ft 131kts
29-Jul-16 12:34 51.580422 -127.805997 170 9499ft 131kts
29-Jul-16 12:35 51.545497 -127.788502 170 9499ft 132kts
29-Jul-16 12:36 51.510500 -127.771000 170 9499ft 132kts
29-Jul-16 12:37 51.475468 -127.753515 170 9499ft 132kts
29-Jul-16 12:38 51.440414 -127.736033 170 9500ft 133kts
29-Jul-16 12:39 51.405474 -127.718656 169 9500ft 134kts
29-Jul-16 12:40 51.371196 -127.701627 168 9500ft 134kts
29-Jul-16 12:41 51.335700 -127.683987 169 9498ft 135kts
29-Jul-16 12:42 51.300400 -127.666521 169 9502ft 136kts
29-Jul-16 12:43 51.264905 -127.648940 169 9500ft 136kts
29-Jul-16 12:44 51.229822 -127.631613 170 9500ft 136kts
29-Jul-16 12:45 51.194475 -127.614184 169 9501ft 136kts
29-Jul-16 12:46 51.159785 -127.597127 169 9500ft 136kts
29-Jul-16 12:47 51.124925 -127.579988 169 9499ft 136kts
29-Jul-16 12:48 51.089837 -127.562764 169 9501ft 136kts
29-Jul-16 12:49 51.054770 -127.545638 168 9500ft 136kts
29-Jul-16 12:51 51.019842 -127.528551 169 9499ft 136kts
29-Jul-16 12:52 50.984623 -127.511322 170 9502ft 136kts
29-Jul-16 12:53 50.948756 -127.493808 170 9502ft 136kts
29-Jul-16 12:54 50.913526 -127.476700 169 9499ft 136kts
29-Jul-16 12:55 50.880315 -127.460560 170 9498ft 135kts
29-Jul-16 12:56 50.845960 -127.443906 169 9498ft 135kts
29-Jul-16 12:57 50.811319 -127.427121 169 9501ft 135kts
29-Jul-16 12:58 50.777048 -127.410513 169 9498ft 136kts
29-Jul-16 12:59 50.743025 -127.394085 169 9496ft 135kts
29-Jul-16 13:00 50.706691 -127.376614 169 9177ft 148kts
29-Jul-16 13:01 50.677691 -127.345916 122 8838ft 154kts
29-Jul-16 13:01 50.661577 -127.303035 119 8532ft 154kts
29-Jul-16 13:03 50.639752 -127.243760 118 8191ft 147kts
29-Jul-16 13:03 50.624730 -127.203082 121 7961ft 146kts
29-Jul-16 13:04 50.605958 -127.152008 120 7683ft 147kts
29-Jul-16 13:05 50.585829 -127.097331 119 7499ft 139kts
29-Jul-16 13:06 50.567976 -127.049191 119 7494ft 134kts
29-Jul-16 13:07 50.550975 -127.003250 118 7497ft 132kts
29-Jul-16 13:08 50.533417 -126.956214 120 7498ft 132kts
29-Jul-16 13:09 50.515738 -126.909168 122 7501ft 132kts
29-Jul-16 13:10 50.497712 -126.861272 119 7500ft 138kts
29-Jul-16 13:11 50.478845 -126.811381 118 7499ft 142kts
29-Jul-16 13:12 50.459865 -126.761212 120 7502ft 142kts
29-Jul-16 13:13 50.441588 -126.712651 121 7498ft 141kts
29-Jul-16 13:14 50.423351 -126.664249 121 7501ft 142kts
29-Jul-16 13:15 50.405346 -126.616409 122 7498ft 141kts
29-Jul-16 13:16 50.387668 -126.569759 120 7498ft 141kts
29-Jul-16 13:17 50.370198 -126.523634 120 7498ft 141kts
29-Jul-16 13:18 50.352591 -126.477285 120 7499ft 139kts
29-Jul-16 13:19 50.335137 -126.431521 119 7477ft 140kts
29-Jul-16 13:20 50.318295 -126.387437 120 7453ft 140kts
29-Jul-16 13:21 50.302719 -126.346295 120 7431ft 140kts
29-Jul-16 13:22 50.288065 -126.307320 119 7402ft 139kts
29-Jul-16 13:23 50.273588 -126.269351 121 7361ft 139kts
29-Jul-16 13:24 50.258841 -126.230883 119 7338ft 138kts
29-Jul-16 13:25 50.244088 -126.192312 120 7336ft 137kts
29-Jul-16 13:26 50.229243 -126.153839 119 7340ft 136kts
29-Jul-16 13:27 50.214382 -126.115182 120 7349ft 136kts
29-Jul-16 13:28 50.199424 -126.076349 121 7349ft 137kts
29-Jul-16 13:29 50.184469 -126.037736 118 7348ft 138kts
29-Jul-16 13:30 50.168214 -125.995600 121 7207ft 142kts
29-Jul-16 13:31 50.152078 -125.954036 119 6974ft 143kts
29-Jul-16 13:32 50.134703 -125.909236 119 6723ft 143kts
29-Jul-16 13:33 50.118746 -125.868290 118 6501ft 141kts
29-Jul-16 13:34 50.102629 -125.826738 119 6274ft 141kts
29-Jul-16 13:35 50.086913 -125.786486 118 6049ft 141kts
29-Jul-16 13:36 50.071624 -125.747378 118 5831ft 140kts
29-Jul-16 13:37 50.056074 -125.707657 120 5612ft 140kts
29-Jul-16 13:38 50.040692 -125.668363 119 5485ft 134kts
29-Jul-16 13:39 50.027608 -125.635073 121 5485ft 129kts
29-Jul-16 13:40 50.013112 -125.598185 116 5485ft 127kts
29-Jul-16 13:41 49.998878 -125.562090 118 5483ft 127kts
29-Jul-16 13:42 49.984948 -125.526684 117 5484ft 126kts
29-Jul-16 13:43 49.970460 -125.489878 117 5485ft 126kts
29-Jul-16 13:44 49.958438 -125.449212 93 5674ft 111kts
29-Jul-16 13:45 49.940934 -125.410338 126 5628ft 131kts
29-Jul-16 13:46 49.923660 -125.371253 122 5482ft 136kts
29-Jul-16 13:47 49.910032 -125.338587 123 5360ft 136kts
29-Jul-16 13:48 49.896828 -125.305965 120 5229ft 137kts
29-Jul-16 13:50 49.883131 -125.272415 119 5084ft 137kts
29-Jul-16 13:51 49.869505 -125.238949 121 4944ft 137kts
29-Jul-16 13:52 49.855960 -125.205962 119 4810ft 136kts
29-Jul-16 13:53 49.842082 -125.171993 121 4666ft 136kts
29-Jul-16 13:54 49.827892 -125.137504 120 4516ft 135kts
29-Jul-16 13:55 49.813241 -125.101857 120 4366ft 135kts
29-Jul-16 13:56 49.798355 -125.065680 119 4213ft 134kts
29-Jul-16 13:57 49.783062 -125.028521 119 4054ft 133kts
29-Jul-16 13:58 49.767263 -124.990255 119 3892ft 133kts
29-Jul-16 13:59 49.751514 -124.950740 114 3724ft 131kts
29-Jul-16 14:00 49.737470 -124.910612 114 3559ft 131kts
29-Jul-16 14:01 49.722970 -124.869110 114 3387ft 130kts
29-Jul-16 14:01 49.710527 -124.833517 114 3240ft 130kts
29-Jul-16 14:02 49.695526 -124.790651 114 3062ft 129kts
29-Jul-16 14:03 49.680613 -124.748058 115 2886ft 130kts
29-Jul-16 14:04 49.665339 -124.704532 116 2775ft 127kts
29-Jul-16 14:05 49.650223 -124.661505 117 2863ft 127kts
29-Jul-16 14:06 49.635133 -124.618639 118 2997ft 126kts
29-Jul-16 14:07 49.620192 -124.576273 120 3267ft 123kts
29-Jul-16 14:08 49.605370 -124.534417 120 3482ft 127kts
29-Jul-16 14:09 49.589624 -124.488743 118 3485ft 134kts
29-Jul-16 14:10 49.574653 -124.442610 118 3484ft 136kts
29-Jul-16 14:11 49.559363 -124.395236 117 3484ft 135kts
29-Jul-16 14:12 49.544739 -124.349922 118 3483ft 125kts
29-Jul-16 14:13 49.532883 -124.312532 118 3482ft 128kts
29-Jul-16 14:14 49.520110 -124.272872 116 3478ft 133kts
29-Jul-16 14:15 49.507527 -124.233981 114 3473ft 135kts
29-Jul-16 14:16 49.495195 -124.195962 113 3470ft 135kts
29-Jul-16 14:17 49.483162 -124.158856 112 3449ft 135kts
29-Jul-16 14:18 49.470848 -124.121184 110 3439ft 133kts
29-Jul-16 14:19 49.458772 -124.084000 109 3432ft 131kts
29-Jul-16 14:20 49.446380 -124.046043 110 3428ft 130kts
29-Jul-16 14:21 49.433965 -124.007906 108 3427ft 129kts
29-Jul-16 14:22 49.421830 -123.970880 110 3428ft 130kts
29-Jul-16 14:23 49.409502 -123.933335 109 3431ft 130kts
29-Jul-16 14:24 49.396958 -123.895083 108 3432ft 130kts
29-Jul-16 14:25 49.383863 -123.855300 110 3430ft 130kts
29-Jul-16 14:26 49.365261 -123.820154 124 3426ft 133kts
29-Jul-16 14:27 49.343254 -123.778694 122 3430ft 133kts
29-Jul-16 14:28 49.322595 -123.739608 123 3363ft 136kts
29-Jul-16 14:29 49.303476 -123.703544 123 3290ft 136kts
29-Jul-16 14:30 49.284550 -123.667917 122 3216ft 136kts
29-Jul-16 14:31 49.263938 -123.629188 122 3135ft 136kts
29-Jul-16 14:32 49.244127 -123.592022 123 3070ft 137kts
29-Jul-16 14:33 49.229032 -123.551121 104 2996ft 133kts
29-Jul-16 14:34 49.219549 -123.504818 84 2989ft 122kts
29-Jul-16 14:35 49.218070 -123.463427 89 2942ft 121kts
29-Jul-16 14:36 49.214160 -123.421621 94 2798ft 123kts
29-Jul-16 14:37 49.209830 -123.382177 95 2382ft 111kts
29-Jul-16 14:38 49.205706 -123.345506 97 1928ft 111kts
29-Jul-16 14:39 49.201763 -123.310676 97 1469ft 109kts
29-Jul-16 14:40 49.197864 -123.276263 97 1014ft 108kts
29-Jul-16 14:41 49.194180 -123.242521 96 531ft 110kts
29-Jul-16 14:42 49.190991 -123.211985 97 142ft 99kts
29-Jul-16 14:43 49.188603 -123.192784 97 17ft 50kts
29-Jul-16 14:44 49.188310 -123.190257 86 17ft 0kts
29-Jul-16 14:45 49.188310 -123.190257 86 17ft 0kts
29-Jul-16 14:46 49.188310 -123.190257 86 17ft 0kts
29-Jul-16 14:47 49.188310 -123.190257 86 17ft 0kts
29-Jul-16 14:48 49.188310 -123.190257 86 17ft 0kts
29-Jul-16 14:50 49.188310 -123.190257 86 17ft 0kts
29-Jul-16 14:51 49.188310 -123.190257 86 17ft 0kts
29-Jul-16 14:52 49.188310 -123.190257 86 17ft 0kts
29-Jul-16 14:53 49.188310 -123.190257 86 17ft 0kts
29-Jul-16 14:54 49.188310 -123.190257 86 17ft 0kts

Navigation Log

Ident Type
1. CZST Airport
2. XT Navaid
3. ZKI Navaid
4. YJQ Navaid
5. YZT Navaid
6. CORMO Fix
7. FENEL Fix
8. ATUNA Fix
9. COHOE Fix
10. QQ Navaid
11. JAINE Fix
12. MACAR Fix
13. TREEL Fix
14. VARSY Fix
15. CYVR Airport